Time;durP1;ratioP1;P1;durP2;ratioP2;P2;SDS_P1;SDS_P2;PMS_P1;PMS_P2;Temp;Humidity;BMP_temperature;BMP_pressure;BME280_temperature;BME280_humidity;BME280_pressure;Samples;Min_cycle;Max_cycle;Signal;HPM_P1;HPM_P2
2022/04/05 00:01:43;;;;;;;5.40;3.35;;;6.10;99.90;;;;;;5050144;28;20033;-71
2022/04/05 00:04:10;;;;;;;5.95;3.45;;;6.10;99.90;;;;;;5069291;28;20030;-72
2022/04/05 00:06:36;;;;;;;5.10;3.15;;;6.00;99.90;;;;;;5048134;28;20503;-70
2022/04/05 00:09:01;;;;;;;4.10;3.40;;;6.00;99.90;;;;;;5068888;28;20036;-71
2022/04/05 00:11:27;;;;;;;3.47;2.63;;;6.00;99.90;;;;;;5048777;28;20481;-71
2022/04/05 00:13:52;;;;;;;2.85;2.65;;;5.90;99.90;;;;;;5068828;28;20032;-60
2022/04/05 00:16:18;;;;;;;4.13;2.55;;;5.90;99.90;;;;;;5044809;28;20389;-60
2022/04/05 00:18:43;;;;;;;2.42;2.03;;;5.80;99.90;;;;;;5068850;28;20044;-60
2022/04/05 00:21:09;;;;;;;3.03;1.70;;;5.80;99.90;;;;;;5048276;28;20043;-60
2022/04/05 00:23:35;;;;;;;2.53;1.83;;;5.80;99.90;;;;;;5068670;28;20036;-60
2022/04/05 00:26:01;;;;;;;2.58;1.50;;;5.80;99.90;;;;;;5047975;28;20396;-62
2022/04/05 00:28:26;;;;;;;2.25;1.30;;;5.80;99.90;;;;;;5069046;28;20044;-60
2022/04/05 00:30:52;;;;;;;3.40;1.42;;;5.70;99.90;;;;;;5048001;28;20071;-61
2022/04/05 00:33:17;;;;;;;4.72;1.05;;;5.70;99.90;;;;;;5068635;28;20044;-60
2022/04/05 00:35:43;;;;;;;7.57;1.83;;;5.60;99.90;;;;;;5048042;28;20025;-61
2022/04/05 00:38:09;;;;;;;4.30;1.35;;;5.60;99.90;;;;;;5068614;28;20149;-60
2022/04/05 00:40:36;;;;;;;3.28;1.30;;;5.60;99.90;;;;;;5058285;28;20024;-60
2022/04/05 00:43:05;;;;;;;3.60;1.42;;;5.60;99.90;;;;;;5049405;28;20040;-60
2022/04/05 00:45:34;;;;;;;5.40;1.52;;;5.50;99.90;;;;;;5067002;28;20033;-61
2022/04/05 00:48:01;;;;;;;5.22;1.88;;;5.50;99.90;;;;;;5056791;28;20076;-60
2022/04/05 00:50:27;;;;;;;2.58;1.48;;;5.60;99.90;;;;;;5067414;28;20029;-61
2022/04/05 00:52:53;;;;;;;5.10;1.20;;;5.50;99.90;;;;;;5049446;28;20044;-60
2022/04/05 00:55:22;;;;;;;8.77;2.20;;;5.50;99.90;;;;;;5066525;28;20020;-60
2022/04/05 00:57:49;;;;;;;4.07;1.20;;;5.50;99.90;;;;;;5049138;28;20519;-60
2022/04/05 01:00:15;;;;;;;2.97;1.50;;;5.50;99.90;;;;;;5066539;28;20100;-60
2022/04/05 01:02:43;;;;;;;5.95;1.73;;;5.50;99.90;;;;;;5056805;28;20123;-60
2022/04/05 01:05:09;;;;;;;5.30;1.63;;;5.60;99.90;;;;;;5048122;28;20037;-61
2022/04/05 01:07:39;;;;;;;4.13;1.30;;;5.60;99.90;;;;;;5066068;28;20405;-60
2022/04/05 01:10:06;;;;;;;6.07;1.70;;;5.60;99.90;;;;;;5048920;28;20253;-60
2022/04/05 01:12:32;;;;;;;7.90;2.05;;;5.60;99.90;;;;;;5066629;28;20157;-60
2022/04/05 01:14:58;;;;;;;10.20;2.10;;;5.70;99.90;;;;;;5049798;28;20511;-58
2022/04/05 01:17:24;;;;;;;7.13;2.13;;;5.70;99.90;;;;;;5035487;28;20039;-58
2022/04/05 01:19:51;;;;;;;4.97;1.20;;;5.70;99.90;;;;;;5068649;28;20317;-58
2022/04/05 01:22:16;;;;;;;6.25;1.63;;;5.70;99.90;;;;;;5053420;28;20111;-58
2022/04/05 01:24:42;;;;;;;2.97;1.17;;;5.70;99.90;;;;;;5069033;28;20111;-57
2022/04/05 01:27:08;;;;;;;4.93;1.45;;;5.70;99.90;;;;;;5052399;28;20056;-60
2022/04/05 01:29:34;;;;;;;6.05;1.13;;;5.70;99.90;;;;;;5068675;28;20071;-62
2022/04/05 01:32:05;;;;;;;5.07;1.27;;;5.70;99.90;;;;;;5051175;28;20017;-61
2022/04/05 01:34:34;;;;;;;10.10;1.33;;;5.70;99.90;;;;;;5068597;28;20496;-60
2022/04/05 01:37:02;;;;;;;6.75;1.75;;;5.70;99.90;;;;;;5050977;28;20495;-60
2022/04/05 01:39:30;;;;;;;5.55;1.30;;;5.70;99.90;;;;;;5068623;28;20033;-61
2022/04/05 01:42:00;;;;;;;7.38;1.17;;;5.60;99.90;;;;;;5050093;28;20028;-60
2022/04/05 01:44:27;;;;;;;3.45;1.23;;;5.60;99.90;;;;;;5068733;28;20585;-61
2022/04/05 01:46:52;;;;;;;3.45;0.93;;;5.60;99.90;;;;;;5049703;28;20040;-60
2022/04/05 01:49:18;;;;;;;3.55;1.13;;;5.60;99.90;;;;;;5068193;28;20047;-60
2022/04/05 01:51:45;;;;;;;3.90;1.10;;;5.60;99.90;;;;;;5048727;28;20080;-60
2022/04/05 01:54:13;;;;;;;2.90;1.17;;;5.60;99.90;;;;;;5068724;28;20033;-61
2022/04/05 01:56:48;;;;;;;4.95;0.93;;;5.60;99.90;;;;;;5047851;28;20029;-61
2022/04/05 01:59:15;;;;;;;1.45;1.00;;;5.60;99.90;;;;;;5068699;28;20399;-60
2022/04/05 02:01:41;;;;;;;6.18;1.13;;;5.60;99.90;;;;;;5048145;28;20029;-60
2022/04/05 02:04:09;;;;;;;2.65;0.93;;;5.60;99.90;;;;;;5068584;28;20017;-61
2022/04/05 02:06:35;;;;;;;4.32;1.30;;;5.60;99.90;;;;;;5047108;28;20025;-60
2022/04/05 02:09:00;;;;;;;4.13;1.10;;;5.60;99.90;;;;;;5068691;28;20523;-60
2022/04/05 02:11:26;;;;;;;4.65;1.30;;;5.60;99.90;;;;;;5049791;28;20065;-60
2022/04/05 02:13:51;;;;;;;4.25;1.20;;;5.50;99.90;;;;;;5050135;28;20029;-60
2022/04/05 02:16:17;;;;;;;4.97;1.00;;;5.50;99.90;;;;;;5067438;28;20028;-60
2022/04/05 02:18:42;;;;;;;2.92;0.93;;;5.50;99.90;;;;;;5050689;28;20091;-60
2022/04/05 02:21:08;;;;;;;3.20;1.25;;;5.40;99.90;;;;;;5070956;28;20068;-60
2022/04/05 02:23:34;;;;;;;10.15;1.90;;;5.40;99.90;;;;;;5050410;28;20036;-60
2022/04/05 02:25:59;;;;;;;2.97;0.77;;;5.40;99.90;;;;;;5071002;28;20040;-61
2022/04/05 02:28:25;;;;;;;6.63;1.45;;;5.40;99.90;;;;;;5050372;28;20042;-61
2022/04/05 02:30:51;;;;;;;5.95;1.48;;;5.40;99.90;;;;;;5070846;28;20403;-60
2022/04/05 02:33:17;;;;;;;5.78;1.20;;;5.40;99.90;;;;;;5050116;28;20037;-61
2022/04/05 02:35:43;;;;;;;5.10;1.02;;;5.40;99.90;;;;;;5070845;28;20035;-60
2022/04/05 02:38:08;;;;;;;1.70;1.10;;;5.40;99.90;;;;;;5050411;28;20385;-60
2022/04/05 02:40:34;;;;;;;6.68;1.35;;;5.40;99.90;;;;;;5070868;28;20337;-60
2022/04/05 02:42:59;;;;;;;4.63;1.35;;;5.30;99.90;;;;;;5050219;28;20033;-60
2022/04/05 02:45:25;;;;;;;3.72;1.20;;;5.40;99.90;;;;;;5070676;28;20056;-61
2022/04/05 02:47:50;;;;;;;3.92;0.88;;;5.40;99.90;;;;;;5060482;28;20044;-61
2022/04/05 02:50:17;;;;;;;6.70;1.25;;;5.40;99.90;;;;;;5051671;28;20028;-61
2022/04/05 02:52:47;;;;;;;6.75;1.58;;;5.40;99.90;;;;;;5068940;28;20112;-60
2022/04/05 02:55:13;;;;;;;8.68;1.52;;;5.40;99.90;;;;;;5051430;28;20082;-61
2022/04/05 02:57:40;;;;;;;3.38;1.17;;;5.40;99.90;;;;;;5068549;28;20028;-60
2022/04/05 03:00:07;;;;;;;7.25;2.15;;;5.40;99.90;;;;;;5051367;28;20237;-61
2022/04/05 03:02:34;;;;;;;4.18;1.35;;;5.40;99.90;;;;;;5068489;28;20029;-60
2022/04/05 03:05:01;;;;;;;6.85;1.60;;;5.40;99.90;;;;;;5051562;28;20139;-60
2022/04/05 03:07:27;;;;;;;6.45;1.70;;;5.30;99.90;;;;;;5068578;28;20028;-61
2022/04/05 03:09:52;;;;;;;7.38;1.65;;;5.30;99.90;;;;;;5070923;28;20024;-61
2022/04/05 03:12:18;;;;;;;4.45;1.70;;;5.40;99.90;;;;;;5055709;28;20013;-61
2022/04/05 03:14:45;;;;;;;6.45;1.50;;;5.30;99.90;;;;;;5070884;28;20104;-61
2022/04/05 03:17:11;;;;;;;5.68;1.50;;;5.20;99.90;;;;;;5051226;28;20241;-61
2022/04/05 03:19:37;;;;;;;5.60;1.98;;;5.20;99.90;;;;;;5070831;28;20527;-61
2022/04/05 03:22:05;;;;;;;7.10;1.63;;;5.20;99.90;;;;;;5053210;28;20032;-61
2022/04/05 03:24:31;;;;;;;9.43;2.30;;;5.10;99.90;;;;;;5070570;28;20044;-61
2022/04/05 03:26:57;;;;;;;6.05;1.90;;;5.10;99.90;;;;;;5052784;28;20051;-61
2022/04/05 03:29:23;;;;;;;10.30;2.55;;;5.10;99.90;;;;;;5070438;28;20187;-61
2022/04/05 03:31:48;;;;;;;9.27;2.40;;;5.10;99.90;;;;;;5051221;28;20029;-60
2022/04/05 03:34:14;;;;;;;9.25;2.50;;;5.10;99.90;;;;;;5070417;28;20023;-61
2022/04/05 03:36:41;;;;;;;10.48;2.35;;;5.10;99.90;;;;;;5050080;28;20024;-60
2022/04/05 03:39:07;;;;;;;7.35;2.20;;;5.00;99.90;;;;;;5070202;28;20488;-61
2022/04/05 03:41:32;;;;;;;6.68;1.70;;;5.10;99.90;;;;;;5048881;28;20053;-59
2022/04/05 03:43:58;;;;;;;8.95;2.70;;;5.10;99.90;;;;;;5070242;28;20483;-61
2022/04/05 03:46:23;;;;;;;9.80;1.83;;;5.00;99.90;;;;;;5050597;28;20040;-61
2022/04/05 03:48:49;;;;;;;6.10;1.85;;;5.00;99.90;;;;;;5046107;28;20123;-61
2022/04/05 03:51:14;;;;;;;7.05;1.70;;;5.00;99.90;;;;;;5069405;28;20037;-61
2022/04/05 03:53:41;;;;;;;6.60;1.65;;;5.10;99.90;;;;;;5049048;28;20025;-60
2022/04/05 03:56:06;;;;;;;4.50;1.77;;;5.00;99.90;;;;;;5069464;28;20135;-61
2022/04/05 03:58:32;;;;;;;7.28;1.60;;;5.10;99.90;;;;;;5048577;28;20516;-61
2022/04/05 04:00:57;;;;;;;8.18;1.73;;;5.10;99.90;;;;;;5069153;28;20124;-61
2022/04/05 04:03:23;;;;;;;9.50;1.73;;;5.10;99.90;;;;;;5048582;28;20032;-60
2022/04/05 04:05:48;;;;;;;14.80;3.08;;;5.20;99.90;;;;;;5068908;28;20032;-61
2022/04/05 04:08:14;;;;;;;7.78;2.03;;;5.20;99.90;;;;;;5048452;28;20075;-61
2022/04/05 04:10:39;;;;;;;5.35;1.55;;;5.20;99.90;;;;;;5069022;28;20040;-61
2022/04/05 04:13:05;;;;;;;10.77;2.22;;;5.20;99.90;;;;;;5047242;28;20202;-61
2022/04/05 04:15:30;;;;;;;10.82;2.58;;;5.20;99.90;;;;;;5048002;28;20036;-61
2022/04/05 04:17:56;;;;;;;4.93;1.95;;;5.20;99.90;;;;;;5069949;28;20020;-61
2022/04/05 04:20:21;;;;;;;9.25;2.15;;;5.10;99.90;;;;;;5048495;28;20033;-61
2022/04/05 04:22:47;;;;;;;11.98;1.60;;;5.00;99.90;;;;;;5068921;28;20070;-60
2022/04/05 04:25:12;;;;;;;14.88;2.97;;;4.80;99.90;;;;;;5048610;28;20029;-61
2022/04/05 04:27:38;;;;;;;12.93;2.03;;;4.80;99.90;;;;;;5068804;28;20063;-61
2022/04/05 04:30:04;;;;;;;6.32;1.73;;;4.80;99.90;;;;;;5048393;28;20044;-62
2022/04/05 04:32:30;;;;;;;5.90;1.80;;;4.70;99.90;;;;;;5062631;28;20036;-61
2022/04/05 04:34:55;;;;;;;8.02;1.83;;;4.80;99.90;;;;;;5043548;28;20025;-61
2022/04/05 04:37:21;;;;;;;8.40;1.63;;;4.90;99.90;;;;;;5047922;28;20147;-62
2022/04/05 04:39:48;;;;;;;7.03;1.70;;;4.90;99.90;;;;;;5068113;28;20021;-62
2022/04/05 04:42:13;;;;;;;6.72;1.60;;;5.00;99.90;;;;;;5028789;28;20033;-61
2022/04/05 04:44:39;;;;;;;2.88;1.50;;;5.00;99.90;;;;;;5068341;28;20047;-62
2022/04/05 04:47:05;;;;;;;6.72;1.70;;;5.00;99.90;;;;;;5047716;28;20122;-60
2022/04/05 04:49:31;;;;;;;7.50;1.73;;;5.00;99.90;;;;;;5069467;28;20068;-61
2022/04/05 04:51:56;;;;;;;10.55;1.85;;;5.10;99.90;;;;;;5048306;28;20035;-61
2022/04/05 04:54:22;;;;;;;4.70;1.70;;;5.10;99.90;;;;;;5068724;28;20040;-61
2022/04/05 04:56:47;;;;;;;10.60;1.92;;;5.10;99.90;;;;;;5048157;28;20086;-62
2022/04/05 04:59:13;;;;;;;8.35;2.35;;;5.10;99.90;;;;;;5068538;28;20376;-62
2022/04/05 05:01:38;;;;;;;3.83;1.65;;;5.10;99.90;;;;;;5048147;28;20122;-61
2022/04/05 05:04:04;;;;;;;6.18;2.03;;;5.10;99.90;;;;;;5068647;28;20106;-61
2022/04/05 05:06:29;;;;;;;6.63;2.08;;;5.20;99.90;;;;;;5048123;28;20031;-62
2022/04/05 05:08:55;;;;;;;9.70;1.85;;;5.30;99.90;;;;;;5068610;28;20073;-61
2022/04/05 05:11:20;;;;;;;7.43;2.33;;;5.30;99.90;;;;;;5047893;28;20460;-62
2022/04/05 05:14:27;;;;;;;7.10;2.20;;;5.40;99.90;;;;;;5062799;28;20036;-61
2022/04/05 05:17:51;;;;;;;5.72;1.98;;;5.40;99.90;;;;;;5062158;28;20037;-62
2022/04/05 05:21:18;;;;;;;9.55;2.22;;;5.50;99.90;;;;;;5043072;28;20098;-61
2022/04/05 05:24:42;;;;;;;8.82;1.77;;;5.50;99.90;;;;;;5054154;28;20028;-61
2022/04/05 05:28:10;;;;;;;8.15;2.08;;;5.50;99.90;;;;;;5050187;28;20040;-58
2022/04/05 05:31:15;;;;;;;;;;;5.60;99.90;;;;;;5065335;28;20407;-57
2022/04/05 05:34:41;;;;;;;6.85;1.35;;;5.70;99.90;;;;;;5033023;28;20375;-58
2022/04/05 05:38:06;;;;;;;5.97;1.40;;;5.90;99.90;;;;;;5029033;28;20044;-58
2022/04/05 05:41:32;;;;;;;3.40;1.17;;;6.10;99.90;;;;;;5065217;28;20041;-58
2022/04/05 05:44:57;;;;;;;8.77;1.60;;;6.20;99.90;;;;;;5054698;28;20025;-59
2022/04/05 05:48:22;;;;;;;8.98;2.00;;;6.20;99.90;;;;;;5041299;28;20041;-57
2022/04/05 05:51:48;;;;;;;7.72;1.70;;;6.30;99.90;;;;;;5032459;28;20535;-58
2022/04/05 05:55:13;;;;;;;7.32;2.00;;;6.30;99.90;;;;;;5068255;28;20039;-58
2022/04/05 05:58:38;;;;;;;8.88;1.95;;;6.40;99.90;;;;;;5060361;28;20487;-58
2022/04/05 06:02:04;;;;;;;7.57;2.17;;;6.40;99.90;;;;;;5069217;28;20033;-58
2022/04/05 06:05:29;;;;;;;11.32;2.25;;;6.50;99.90;;;;;;5048437;28;20045;-57
2022/04/05 06:08:55;;;;;;;7.20;1.70;;;6.60;99.90;;;;;;5059853;28;20047;-57
2022/04/05 06:12:20;;;;;;;6.47;2.00;;;6.70;99.90;;;;;;5066186;28;20032;-58
2022/04/05 06:15:45;;;;;;;4.70;1.73;;;6.80;99.90;;;;;;5055482;28;20644;-61
2022/04/05 06:19:10;;;;;;;3.15;1.35;;;6.90;99.90;;;;;;5031861;28;20042;-62
2022/04/05 06:22:36;;;;;;;9.02;2.20;;;7.60;99.90;;;;;;5067931;28;20048;-61
2022/04/05 06:26:01;;;;;;;6.18;1.83;;;7.70;99.90;;;;;;5043981;28;20113;-62
2022/04/05 06:29:27;;;;;;;7.32;1.75;;;7.70;99.90;;;;;;5058043;28;20408;-61
2022/04/05 06:32:52;;;;;;;5.25;1.30;;;7.70;99.90;;;;;;5052857;28;20029;-62
2022/04/05 06:36:17;;;;;;;9.23;2.08;;;7.70;99.90;;;;;;5062034;28;20024;-61
2022/04/05 06:39:43;;;;;;;8.43;1.88;;;8.00;99.90;;;;;;5057814;28;20062;-63
2022/04/05 06:43:08;;;;;;;5.18;1.40;;;8.20;97.80;;;;;;5031278;28;20038;-62
2022/04/05 06:46:33;;;;;;;8.80;1.67;;;8.40;93.60;;;;;;5066454;28;20037;-62
2022/04/05 06:49:59;;;;;;;7.85;1.30;;;8.90;91.70;;;;;;5056935;28;20037;-63
2022/04/05 06:53:24;;;;;;;7.03;1.40;;;9.50;78.80;;;;;;5030971;28;20404;-62
2022/04/05 06:56:49;;;;;;;5.82;1.55;;;9.90;78.90;;;;;;5031074;28;20043;-62
2022/04/05 07:00:17;;;;;;;5.43;1.30;;;10.50;63.50;;;;;;5044483;28;20040;-62
2022/04/05 07:03:40;;;;;;;3.78;0.88;;;12.20;53.20;;;;;;5030626;28;20503;-62
2022/04/05 07:07:06;;;;;;;2.58;0.95;;;14.60;32.50;;;;;;5030765;28;20044;-62
2022/04/05 07:10:31;;;;;;;3.38;0.80;;;14.60;31.40;;;;;;5047341;28;20045;-62
2022/04/05 07:13:57;;;;;;;5.30;1.08;;;15.30;28.00;;;;;;5059162;28;20025;-62
2022/04/05 07:17:22;;;;;;;3.58;0.80;;;16.90;23.20;;;;;;5058479;28;20070;-62
2022/04/05 07:20:47;;;;;;;2.50;0.90;;;17.90;19.70;;;;;;5047286;28;20029;-63
2022/04/05 07:24:13;;;;;;;3.67;0.82;;;18.10;18.30;;;;;;5068540;28;20043;-62
2022/04/05 07:27:38;;;;;;;2.33;1.15;;;18.90;17.10;;;;;;5051897;28;20373;-63
2022/04/05 07:31:03;;;;;;;3.70;0.90;;;18.60;17.20;;;;;;5057113;28;20045;-63
2022/04/05 07:34:29;;;;;;;5.78;1.13;;;18.20;18.00;;;;;;5062101;28;20040;-63
2022/04/05 07:37:54;;;;;;;4.68;1.08;;;16.60;19.50;;;;;;5051784;28;20132;-63
2022/04/05 07:41:19;;;;;;;3.40;1.10;;;17.00;19.20;;;;;;5047791;28;20041;-63
2022/04/05 07:44:45;;;;;;;6.47;1.23;;;15.10;25.50;;;;;;5064109;28;20037;-63
2022/04/05 07:48:10;;;;;;;3.17;0.70;;;13.80;26.40;;;;;;5036448;28;20187;-65
2022/04/05 07:51:35;;;;;;;4.00;1.45;;;12.70;25.70;;;;;;5047058;28;20519;-63
2022/04/05 07:55:01;;;;;;;5.00;0.90;;;11.80;29.40;;;;;;5056335;28;20039;-63
2022/04/05 07:58:26;;;;;;;3.15;0.85;;;11.40;34.60;;;;;;5058405;28;20037;-63
2022/04/05 08:01:52;;;;;;;4.88;1.23;;;12.10;31.80;;;;;;5067722;28;20032;-63
2022/04/05 08:05:17;;;;;;;4.28;0.85;;;14.40;27.20;;;;;;5047957;28;20087;-63
2022/04/05 08:08:42;;;;;;;2.63;0.90;;;16.90;20.60;;;;;;5058026;28;20406;-63
2022/04/05 08:12:08;;;;;;;4.10;1.20;;;19.10;16.10;;;;;;5063918;28;20054;-63
2022/04/05 08:15:33;;;;;;;5.82;1.27;;;19.10;13.10;;;;;;5045540;28;20037;-61
2022/04/05 08:18:58;;;;;;;3.33;1.10;;;20.10;13.50;;;;;;5054494;28;20036;-61
2022/04/05 08:22:24;;;;;;;3.85;0.95;;;17.80;17.30;;;;;;5057868;28;20125;-61
2022/04/05 08:25:49;;;;;;;5.25;0.90;;;17.90;15.00;;;;;;5043603;28;20036;-61
2022/04/05 08:29:14;;;;;;;3.05;1.00;;;19.50;15.20;;;;;;5065096;28;20427;-60
2022/04/05 08:32:42;;;;;;;4.97;1.10;;;19.00;12.40;;;;;;5054350;28;20048;-61
2022/04/05 08:36:05;;;;;;;3.35;1.10;;;19.20;13.10;;;;;;5056358;28;20510;-61
2022/04/05 08:39:30;;;;;;;3.03;1.00;;;20.50;8.50;;;;;;5060322;28;20048;-60
2022/04/05 08:42:56;;;;;;;2.15;1.08;;;19.90;8.30;;;;;;5049305;28;20407;-61
2022/04/05 08:46:21;;;;;;;2.33;0.95;;;20.50;8.00;;;;;;5060872;28;20051;-62
2022/04/05 08:49:47;;;;;;;5.07;1.35;;;20.80;6.10;;;;;;5055467;28;20044;-61
2022/04/05 08:53:12;;;;;;;5.30;1.23;;;21.40;7.40;;;;;;5028850;28;20026;-61
2022/04/05 08:56:37;;;;;;;5.70;1.05;;;20.70;8.00;;;;;;5066138;28;20101;-61
2022/04/05 09:00:03;;;;;;;5.10;1.10;;;21.30;9.30;;;;;;5049521;28;20033;-61
2022/04/05 09:03:40;;;;;;;3.00;1.13;;;21.20;6.90;;;;;;5057247;28;20257;-61
2022/04/05 09:07:06;;;;;;;3.80;0.70;;;21.10;4.50;;;;;;5063109;28;20025;-61
2022/04/05 09:10:49;;;;;;;3.78;0.85;;;21.30;4.10;;;;;;5045670;28;20477;-61
2022/04/05 09:14:15;;;;;;;3.60;1.20;;;21.00;4.30;;;;;;5057452;28;20146;-61
2022/04/05 09:17:23;;;;;;;3.20;0.90;;;20.90;6.00;;;;;;5043596;28;20558;-61
2022/04/05 09:20:49;;;;;;;3.97;1.10;;;21.10;8.20;;;;;;5043398;28;20531;-61
2022/04/05 09:24:14;;;;;;;4.80;1.10;;;22.10;4.10;;;;;;5060888;28;20192;-60
2022/04/05 09:27:39;;;;;;;2.35;0.95;;;23.00;4.40;;;;;;5056674;28;20037;-69
2022/04/05 09:31:05;;;;;;;1.70;0.95;;;22.70;1.10;;;;;;5060171;28;20052;-69
2022/04/05 09:34:49;;;;;;;4.03;1.13;;;23.10;4.30;;;;;;5066613;28;20730;-69
2022/04/05 09:38:32;;;;;;;2.25;0.90;;;21.70;2.80;;;;;;5032270;28;20037;-68
2022/04/05 09:42:01;;;;;;;3.67;1.25;;;21.20;3.20;;;;;;5061007;28;20036;-69
2022/04/05 09:45:26;;;;;;;2.45;1.00;;;21.50;2.40;;;;;;5066257;28;20060;-69
2022/04/05 09:48:51;;;;;;;4.82;1.20;;;21.70;2.20;;;;;;5060320;28;20048;-69
2022/04/05 09:52:17;;;;;;;3.35;0.70;;;22.30;1.80;;;;;;5066340;28;20092;-68
2022/04/05 09:55:48;;;;;;;1.85;0.90;;;21.90;1.70;;;;;;5047254;28;20033;-69
2022/04/05 09:59:18;;;;;;;3.75;0.85;;;20.90;2.10;;;;;;5064664;28;20123;-68
2022/04/05 10:02:30;;;;;;;;;;;21.70;3.10;;;;;;5054788;28;20488;-69
2022/04/05 10:05:53;;;;;;;2.65;0.95;;;22.00;1.30;;;;;;5046017;28;19909;-69
2022/04/05 10:09:21;;;;;;;3.38;1.05;;;21.60;1.90;;;;;;5063832;28;20419;-67
2022/04/05 10:12:44;;;;;;;3.20;1.05;;;20.50;2.70;;;;;;5053090;28;20308;-69
2022/04/05 10:16:10;;;;;;;4.70;0.93;;;18.50;4.50;;;;;;5049964;28;20033;-70
2022/04/05 10:19:38;;;;;;;2.60;1.02;;;17.10;6.70;;;;;;5034100;28;20037;-68
2022/04/05 10:23:03;;;;;;;3.13;1.00;;;15.80;8.50;;;;;;5031570;28;20033;-68
2022/04/05 10:26:29;;;;;;;3.10;1.60;;;15.10;10.60;;;;;;5067455;28;20530;-68
2022/04/05 10:29:54;;;;;;;3.53;1.27;;;14.50;11.70;;;;;;5058070;28;20044;-68
2022/04/05 10:32:58;;;;;;;1.70;1.00;;;14.30;12.50;;;;;;5030463;28;20025;-67
2022/04/05 10:36:33;;;;;;;7.22;1.25;;;14.40;13.60;;;;;;5049440;28;20041;-68
2022/04/05 10:39:58;;;;;;;7.43;1.73;;;14.30;12.50;;;;;;5057991;28;20150;-69
2022/04/05 10:43:07;;;;;;;2.38;1.25;;;14.00;13.60;;;;;;5031158;28;20068;-68
2022/04/05 10:46:32;;;;;;;5.20;1.42;;;13.70;13.60;;;;;;5063435;28;20040;-68
2022/04/05 10:49:56;;;;;;;4.80;1.20;;;13.40;14.40;;;;;;5065328;28;20036;-68
2022/04/05 10:53:33;;;;;;;2.97;1.00;;;13.00;15.50;;;;;;5060058;28;20040;-68
2022/04/05 10:56:58;;;;;;;2.67;1.17;;;12.90;16.50;;;;;;5059508;28;20059;-68
2022/04/05 11:00:30;;;;;;;5.30;1.38;;;12.40;16.70;;;;;;5048577;28;20037;-68
2022/04/05 11:03:55;;;;;;;3.95;1.55;;;12.20;17.70;;;;;;5059575;28;20403;-68
2022/04/05 11:07:02;;;;;;;2.20;1.35;;;12.20;18.60;;;;;;5069000;28;20177;-70
2022/04/05 11:10:27;;;;;;;2.38;0.90;;;12.00;18.30;;;;;;5046644;28;20040;-70
2022/04/05 11:13:33;;;;;;;;;;;11.90;18.50;;;;;;5059884;28;20025;-71
2022/04/05 11:16:58;;;;;;;4.63;1.08;;;11.70;19.90;;;;;;5055404;28;20559;-70
2022/04/05 11:20:27;;;;;;;4.20;1.60;;;11.50;20.20;;;;;;5048452;28;20048;-70
2022/04/05 11:24:01;;;;;;;2.65;0.90;;;11.60;20.80;;;;;;5059198;28;20056;-70
2022/04/05 11:27:25;;;;;;;3.72;0.90;;;12.20;20.50;;;;;;5066686;28;20082;-70
2022/04/05 11:30:23;;;;;;;4.57;0.90;;;12.40;19.60;;;;;;5044645;28;20041;-70
2022/04/05 11:33:12;;;;;;;2.00;0.90;;;12.10;20.30;;;;;;5048331;28;20135;-70
2022/04/05 11:36:36;;;;;;;2.28;1.15;;;11.90;20.00;;;;;;5047444;28;20107;-71
2022/04/05 11:40:02;;;;;;;5.25;1.05;;;11.70;21.60;;;;;;5064550;28;20071;-70
2022/04/05 11:43:30;;;;;;;4.22;1.00;;;11.70;22.00;;;;;;5058690;28;20043;-70
2022/04/05 11:46:19;;;;;;;2.38;0.90;;;12.00;21.30;;;;;;5051177;28;20033;-70
2022/04/05 11:48:47;;;;;;;4.78;1.13;;;12.50;20.20;;;;;;5069665;28;20056;-70
2022/04/05 11:51:53;;;;;;;1.60;0.75;;;12.40;19.80;;;;;;5057777;28;20016;-70
2022/04/05 11:58:46;;;;;;;2.85;0.75;;;12.00;21.30;;;;;;5049762;28;20120;-70
2022/04/05 12:02:10;;;;;;;2.70;0.88;;;11.70;21.70;;;;;;5044034;28;20025;-70
2022/04/05 12:05:35;;;;;;;4.25;0.68;;;11.80;22.30;;;;;;5058504;28;20072;-70
2022/04/05 12:09:01;;;;;;;5.20;0.85;;;12.00;22.10;;;;;;5058240;28;20056;-70
2022/04/05 12:12:26;;;;;;;4.78;1.58;;;12.10;22.20;;;;;;5042357;28;20403;-70
2022/04/05 12:15:16;;;;;;;5.95;1.13;;;12.30;21.60;;;;;;5052478;28;20511;-62
2022/04/05 12:17:42;;;;;;;3.60;1.20;;;12.60;21.10;;;;;;5049528;28;20032;-62
2022/04/05 12:20:08;;;;;;;4.68;1.33;;;12.90;20.40;;;;;;5066515;28;20028;-62
2022/04/05 12:22:34;;;;;;;2.95;1.30;;;12.90;20.20;;;;;;5069314;28;20395;-62
2022/04/05 12:25:00;;;;;;;2.30;1.05;;;13.00;19.80;;;;;;5049726;28;20510;-63
2022/04/05 12:27:28;;;;;;;5.07;0.88;;;13.00;19.70;;;;;;5066907;28;20045;-63
2022/04/05 12:30:02;;;;;;;1.23;0.80;;;12.90;19.40;;;;;;5049302;28;20056;-63
2022/04/05 12:32:35;;;;;;;4.22;1.13;;;12.90;19.60;;;;;;5047403;28;20036;-63
2022/04/05 12:35:02;;;;;;;2.00;1.15;;;12.60;19.70;;;;;;5068609;28;20036;-63
2022/04/05 12:37:29;;;;;;;3.55;0.80;;;12.30;20.00;;;;;;5067132;28;20112;-63
2022/04/05 12:39:55;;;;;;;3.60;1.00;;;12.20;20.00;;;;;;5049424;28;20017;-63
2022/04/05 12:42:21;;;;;;;2.17;0.95;;;12.20;20.30;;;;;;5047678;28;20052;-63
2022/04/05 12:44:55;;;;;;;1.75;0.80;;;12.30;21.00;;;;;;5068103;28;20025;-63
2022/04/05 12:47:23;;;;;;;3.13;0.70;;;12.20;20.70;;;;;;5047704;28;20056;-63
2022/04/05 12:49:50;;;;;;;2.92;0.77;;;12.10;20.50;;;;;;5068826;28;20060;-62
2022/04/05 12:52:24;;;;;;;1.35;0.68;;;12.00;20.70;;;;;;5047259;28;20484;-63
2022/04/05 12:54:53;;;;;;;5.00;0.93;;;11.90;21.30;;;;;;5028714;28;20539;-63
2022/04/05 12:57:20;;;;;;;3.67;0.82;;;11.70;21.50;;;;;;5047915;28;20071;-63
2022/04/05 12:59:48;;;;;;;5.15;1.15;;;11.50;22.30;;;;;;5068276;28;20039;-62
2022/04/05 13:02:27;;;;;;;3.00;1.15;;;11.20;22.50;;;;;;5047197;28;20094;-62
2022/04/05 13:06:20;;;;;;;2.75;0.80;;;11.00;22.90;;;;;;5028874;28;20544;-62
2022/04/05 13:07:55;;;;;;;5.80;1.15;;;10.80;23.10;;;;;;5060918;28;20031;-62
2022/04/05 13:10:33;;;;;;;3.15;0.65;;;11.00;23.60;;;;;;5049292;28;20519;-62
2022/04/05 13:13:15;;;;;;;3.13;0.70;;;10.90;24.00;;;;;;5068946;28;20074;-62
2022/04/05 13:15:42;;;;;;;1.40;0.73;;;10.90;24.00;;;;;;5026718;28;20021;-52
2022/04/05 13:18:08;;;;;;;3.67;0.60;;;10.90;23.80;;;;;;5048752;28;20021;-56
2022/04/05 13:20:34;;;;;;;6.80;1.17;;;11.00;24.10;;;;;;5065935;28;20123;-56
2022/04/05 13:23:01;;;;;;;3.85;0.85;;;11.00;24.30;;;;;;5068757;28;20108;-53
2022/04/05 13:25:37;;;;;;;2.28;0.90;;;11.00;25.10;;;;;;5050115;28;20098;-55
2022/04/05 13:28:05;;;;;;;5.10;0.80;;;11.00;25.50;;;;;;5068533;28;20094;-55
2022/04/05 13:30:43;;;;;;;5.18;0.85;;;10.90;25.20;;;;;;5050279;28;20052;-54
2022/04/05 13:33:09;;;;;;;3.03;1.05;;;10.90;25.60;;;;;;5068548;28;20027;-55
2022/04/05 13:35:35;;;;;;;2.38;1.00;;;10.90;25.80;;;;;;5051292;28;20111;-49
2022/04/05 13:38:01;;;;;;;2.00;0.80;;;10.90;25.90;;;;;;5068600;28;20021;-52
2022/04/05 13:40:26;;;;;;;2.30;0.60;;;10.80;26.50;;;;;;5050036;28;20392;-55
2022/04/05 13:42:53;;;;;;;5.35;0.82;;;10.80;27.40;;;;;;5068416;28;20024;-53
2022/04/05 13:45:22;;;;;;;3.38;1.02;;;10.70;27.30;;;;;;5048601;28;20033;-52
2022/04/05 13:47:48;;;;;;;6.00;0.80;;;10.80;27.30;;;;;;5062187;28;20041;-53
2022/04/05 13:50:16;;;;;;;3.13;1.00;;;10.80;27.60;;;;;;5047936;28;20036;-51
2022/04/05 13:52:42;;;;;;;3.03;0.90;;;11.00;26.80;;;;;;5066403;28;20029;-53
2022/04/05 13:55:07;;;;;;;5.22;0.80;;;11.20;26.20;;;;;;5068571;28;20032;-53
2022/04/05 13:57:33;;;;;;;2.65;1.13;;;11.40;26.10;;;;;;5045438;28;20623;-55
2022/04/05 13:59:58;;;;;;;3.90;1.00;;;11.30;26.00;;;;;;5068048;28;20119;-54
2022/04/05 14:02:25;;;;;;;1.73;0.88;;;11.20;26.60;;;;;;5054715;28;20029;-54
2022/04/05 14:04:51;;;;;;;2.45;1.00;;;11.10;26.90;;;;;;5068578;28;20025;-54
2022/04/05 14:07:17;;;;;;;4.00;0.90;;;11.20;26.70;;;;;;5053789;28;20514;-56
2022/04/05 14:09:43;;;;;;;3.92;1.17;;;11.20;27.00;;;;;;5054321;28;20041;-55
2022/04/05 14:12:08;;;;;;;4.57;1.30;;;11.20;28.20;;;;;;5056394;28;20017;-56
2022/04/05 14:14:34;;;;;;;2.88;1.02;;;11.10;28.10;;;;;;5071864;28;20440;-55
2022/04/05 14:17:00;;;;;;;3.17;0.90;;;11.00;28.70;;;;;;5051068;28;20658;-55
2022/04/05 14:19:26;;;;;;;3.65;1.05;;;11.00;29.20;;;;;;5072161;28;20033;-56
2022/04/05 14:21:52;;;;;;;4.88;1.05;;;11.00;30.30;;;;;;5053437;28;20107;-54
2022/04/05 14:24:19;;;;;;;1.35;0.90;;;11.00;30.00;;;;;;5072054;28;20099;-54
2022/04/05 14:26:44;;;;;;;1.92;1.30;;;11.00;31.00;;;;;;5052481;28;20029;-53
2022/04/05 14:29:10;;;;;;;1.95;0.85;;;10.90;31.50;;;;;;5072108;28;20036;-56
2022/04/05 14:31:36;;;;;;;2.45;0.88;;;10.70;31.80;;;;;;5050959;28;20034;-53
2022/04/05 14:34:02;;;;;;;1.70;0.60;;;10.60;32.00;;;;;;5071729;28;20031;-49
2022/04/05 14:36:28;;;;;;;2.47;1.15;;;10.50;32.90;;;;;;5052496;28;20511;-50
2022/04/05 14:38:53;;;;;;;2.30;0.80;;;10.40;36.20;;;;;;5069709;28;20064;-54
2022/04/05 14:41:20;;;;;;;3.30;0.95;;;10.40;36.90;;;;;;5052092;28;20562;-53
2022/04/05 14:43:47;;;;;;;2.67;0.70;;;10.40;37.40;;;;;;5050388;28;20423;-52
2022/04/05 14:46:12;;;;;;;4.47;1.05;;;10.50;39.20;;;;;;5071074;28;20451;-52
2022/04/05 14:48:38;;;;;;;3.25;0.93;;;10.50;38.50;;;;;;5049604;28;20087;-50
2022/04/05 14:51:03;;;;;;;3.30;0.90;;;10.40;39.60;;;;;;5070768;28;20021;-54